Terminal Aerodrome Forecast
Issued by NWS Sterling, VA

Current Version | Previous Version | Graphics & Text | Print | Product List | Glossary On
Versions: 1 2 3 4 5 6 7 8 9 10 11 12 13 14 15 16 17 18 19 20 21 22 23 24
183
FTUS41 KLWX 120845 AAA
TAFDCA
TAF AMD
KDCA 120845Z 1209/1306 31004KT P6SM FEW150 SCT250
     FM121400 21004KT P6SM BKN200
     FM130500 28007KT P6SM BKN040=

USA.gov is the U.S. government's official web portal to all federal, state and local government web resources and services.